sensor_id;sensor_type;location;lat;lon;timestamp;P1;durP1;ratioP1;P2;durP2;ratioP2
65831;SDS011;52593;42.648;23.332;2022-12-18T00:01:23;6.47;;;2.75;;
65831;SDS011;52593;42.648;23.332;2022-12-18T00:03:56;7.43;;;2.85;;
65831;SDS011;52593;42.648;23.332;2022-12-18T00:06:22;8.55;;;3.25;;
65831;SDS011;52593;42.648;23.332;2022-12-18T00:08:49;6.73;;;3.07;;
65831;SDS011;52593;42.648;23.332;2022-12-18T00:11:16;8.05;;;3.70;;
65831;SDS011;52593;42.648;23.332;2022-12-18T00:13:44;8.90;;;3.75;;
65831;SDS011;52593;42.648;23.332;2022-12-18T00:16:10;9.07;;;3.55;;
65831;SDS011;52593;42.648;23.332;2022-12-18T00:18:37;6.97;;;3.28;;
65831;SDS011;52593;42.648;23.332;2022-12-18T00:21:04;7.93;;;3.27;;
65831;SDS011;52593;42.648;23.332;2022-12-18T00:23:31;11.30;;;4.72;;
65831;SDS011;52593;42.648;23.332;2022-12-18T00:25:59;7.87;;;3.23;;
65831;SDS011;52593;42.648;23.332;2022-12-18T00:28:25;9.77;;;3.35;;
65831;SDS011;52593;42.648;23.332;2022-12-18T00:30:50;8.80;;;3.53;;
65831;SDS011;52593;42.648;23.332;2022-12-18T00:33:16;9.60;;;3.60;;
65831;SDS011;52593;42.648;23.332;2022-12-18T00:35:42;8.52;;;3.03;;
65831;SDS011;52593;42.648;23.332;2022-12-18T00:38:08;8.10;;;2.93;;
65831;SDS011;52593;42.648;23.332;2022-12-18T00:40:33;6.00;;;2.30;;
65831;SDS011;52593;42.648;23.332;2022-12-18T00:43:17;8.20;;;3.40;;
65831;SDS011;52593;42.648;23.332;2022-12-18T00:45:43;11.47;;;4.33;;
65831;SDS011;52593;42.648;23.332;2022-12-18T00:48:08;11.17;;;4.33;;
65831;SDS011;52593;42.648;23.332;2022-12-18T00:50:33;7.43;;;3.37;;
65831;SDS011;52593;42.648;23.332;2022-12-18T00:52:59;12.37;;;5.00;;
65831;SDS011;52593;42.648;23.332;2022-12-18T00:55:24;11.97;;;5.50;;
65831;SDS011;52593;42.648;23.332;2022-12-18T00:57:50;8.93;;;3.90;;
65831;SDS011;52593;42.648;23.332;2022-12-18T01:00:17;12.90;;;4.85;;
65831;SDS011;52593;42.648;23.332;2022-12-18T01:02:43;11.02;;;4.40;;
65831;SDS011;52593;42.648;23.332;2022-12-18T01:05:09;12.87;;;4.87;;
65831;SDS011;52593;42.648;23.332;2022-12-18T01:07:36;11.73;;;4.70;;
65831;SDS011;52593;42.648;23.332;2022-12-18T01:10:02;10.07;;;3.90;;
65831;SDS011;52593;42.648;23.332;2022-12-18T01:12:28;9.83;;;3.87;;
65831;SDS011;52593;42.648;23.332;2022-12-18T01:14:53;8.10;;;3.30;;
65831;SDS011;52593;42.648;23.332;2022-12-18T01:17:19;9.20;;;3.93;;
65831;SDS011;52593;42.648;23.332;2022-12-18T01:19:44;10.57;;;4.00;;
65831;SDS011;52593;42.648;23.332;2022-12-18T01:22:10;7.53;;;3.17;;
65831;SDS011;52593;42.648;23.332;2022-12-18T01:24:35;9.03;;;3.80;;
65831;SDS011;52593;42.648;23.332;2022-12-18T01:27:00;8.60;;;3.22;;
65831;SDS011;52593;42.648;23.332;2022-12-18T01:29:26;8.00;;;3.20;;
65831;SDS011;52593;42.648;23.332;2022-12-18T01:31:54;12.03;;;4.77;;
65831;SDS011;52593;42.648;23.332;2022-12-18T01:34:20;12.90;;;5.10;;
65831;SDS011;52593;42.648;23.332;2022-12-18T01:36:45;12.97;;;3.63;;
65831;SDS011;52593;42.648;23.332;2022-12-18T01:39:12;7.07;;;3.10;;
65831;SDS011;52593;42.648;23.332;2022-12-18T01:41:38;9.50;;;3.80;;
65831;SDS011;52593;42.648;23.332;2022-12-18T01:47:18;7.40;;;3.57;;
65831;SDS011;52593;42.648;23.332;2022-12-18T01:49:45;10.15;;;4.47;;
65831;SDS011;52593;42.648;23.332;2022-12-18T01:52:10;11.67;;;5.03;;
65831;SDS011;52593;42.648;23.332;2022-12-18T01:54:35;10.40;;;4.32;;
65831;SDS011;52593;42.648;23.332;2022-12-18T01:57:01;10.03;;;4.13;;
65831;SDS011;52593;42.648;23.332;2022-12-18T01:59:26;10.13;;;4.30;;
65831;SDS011;52593;42.648;23.332;2022-12-18T02:01:54;9.85;;;4.30;;
65831;SDS011;52593;42.648;23.332;2022-12-18T02:06:45;8.77;;;3.00;;
65831;SDS011;52593;42.648;23.332;2022-12-18T02:09:20;10.13;;;3.67;;
65831;SDS011;52593;42.648;23.332;2022-12-18T02:12:05;11.45;;;4.57;;
65831;SDS011;52593;42.648;23.332;2022-12-18T02:17:12;13.20;;;5.20;;
65831;SDS011;52593;42.648;23.332;2022-12-18T02:22:40;12.07;;;5.55;;
65831;SDS011;52593;42.648;23.332;2022-12-18T02:25:31;14.30;;;5.32;;
65831;SDS011;52593;42.648;23.332;2022-12-18T02:28:16;11.32;;;4.43;;
65831;SDS011;52593;42.648;23.332;2022-12-18T02:30:45;13.17;;;5.60;;
65831;SDS011;52593;42.648;23.332;2022-12-18T02:33:13;9.27;;;3.95;;
65831;SDS011;52593;42.648;23.332;2022-12-18T02:35:40;11.27;;;4.13;;
65831;SDS011;52593;42.648;23.332;2022-12-18T02:38:07;12.82;;;5.20;;
65831;SDS011;52593;42.648;23.332;2022-12-18T02:40:32;12.70;;;4.93;;
65831;SDS011;52593;42.648;23.332;2022-12-18T02:43:02;9.10;;;3.67;;
65831;SDS011;52593;42.648;23.332;2022-12-18T02:45:32;13.45;;;5.45;;
65831;SDS011;52593;42.648;23.332;2022-12-18T02:47:57;12.73;;;4.83;;
65831;SDS011;52593;42.648;23.332;2022-12-18T02:50:26;14.57;;;5.53;;
65831;SDS011;52593;42.648;23.332;2022-12-18T03:01:06;10.93;;;4.40;;
65831;SDS011;52593;42.648;23.332;2022-12-18T03:03:40;13.30;;;5.30;;
65831;SDS011;52593;42.648;23.332;2022-12-18T03:06:35;10.75;;;4.25;;
65831;SDS011;52593;42.648;23.332;2022-12-18T03:09:02;10.10;;;3.92;;
65831;SDS011;52593;42.648;23.332;2022-12-18T03:11:34;9.40;;;3.85;;
65831;SDS011;52593;42.648;23.332;2022-12-18T03:14:21;10.75;;;4.22;;
65831;SDS011;52593;42.648;23.332;2022-12-18T03:16:49;7.53;;;2.63;;
65831;SDS011;52593;42.648;23.332;2022-12-18T03:19:18;11.43;;;4.82;;
65831;SDS011;52593;42.648;23.332;2022-12-18T03:21:49;8.80;;;3.42;;
65831;SDS011;52593;42.648;23.332;2022-12-18T03:24:18;10.32;;;4.88;;
65831;SDS011;52593;42.648;23.332;2022-12-18T03:26:46;13.23;;;5.35;;
65831;SDS011;52593;42.648;23.332;2022-12-18T03:29:22;10.80;;;4.43;;
65831;SDS011;52593;42.648;23.332;2022-12-18T03:31:59;12.00;;;5.10;;
65831;SDS011;52593;42.648;23.332;2022-12-18T03:34:30;11.55;;;4.53;;
65831;SDS011;52593;42.648;23.332;2022-12-18T03:36:58;11.93;;;4.32;;
65831;SDS011;52593;42.648;23.332;2022-12-18T03:39:24;12.37;;;4.83;;
65831;SDS011;52593;42.648;23.332;2022-12-18T03:42:01;9.95;;;3.63;;
65831;SDS011;52593;42.648;23.332;2022-12-18T03:50:14;8.50;;;3.40;;
65831;SDS011;52593;42.648;23.332;2022-12-18T03:56:02;9.60;;;3.58;;
65831;SDS011;52593;42.648;23.332;2022-12-18T03:58:29;9.02;;;3.03;;
65831;SDS011;52593;42.648;23.332;2022-12-18T04:00:59;8.67;;;2.97;;
65831;SDS011;52593;42.648;23.332;2022-12-18T04:03:28;12.20;;;4.32;;
65831;SDS011;52593;42.648;23.332;2022-12-18T04:05:56;9.38;;;3.45;;
65831;SDS011;52593;42.648;23.332;2022-12-18T04:08:25;7.57;;;3.17;;
65831;SDS011;52593;42.648;23.332;2022-12-18T04:10:50;7.20;;;2.97;;
65831;SDS011;52593;42.648;23.332;2022-12-18T04:13:49;11.43;;;3.83;;
65831;SDS011;52593;42.648;23.332;2022-12-18T04:16:08;6.82;;;2.45;;
65831;SDS011;52593;42.648;23.332;2022-12-18T04:18:34;7.03;;;3.10;;
65831;SDS011;52593;42.648;23.332;2022-12-18T04:21:00;7.73;;;3.07;;
65831;SDS011;52593;42.648;23.332;2022-12-18T04:23:26;8.45;;;3.53;;
65831;SDS011;52593;42.648;23.332;2022-12-18T04:25:52;6.17;;;2.47;;
65831;SDS011;52593;42.648;23.332;2022-12-18T04:28:17;7.70;;;2.83;;
65831;SDS011;52593;42.648;23.332;2022-12-18T04:30:43;11.23;;;3.73;;
65831;SDS011;52593;42.648;23.332;2022-12-18T04:33:12;6.20;;;2.83;;
65831;SDS011;52593;42.648;23.332;2022-12-18T04:35:39;7.50;;;2.85;;
65831;SDS011;52593;42.648;23.332;2022-12-18T04:38:05;10.95;;;4.00;;
65831;SDS011;52593;42.648;23.332;2022-12-18T04:40:33;7.20;;;3.22;;
65831;SDS011;52593;42.648;23.332;2022-12-18T04:42:58;10.77;;;4.57;;
65831;SDS011;52593;42.648;23.332;2022-12-18T04:45:24;9.20;;;3.43;;
65831;SDS011;52593;42.648;23.332;2022-12-18T04:47:49;8.10;;;3.13;;
65831;SDS011;52593;42.648;23.332;2022-12-18T04:50:14;10.27;;;3.87;;
65831;SDS011;52593;42.648;23.332;2022-12-18T04:52:40;14.25;;;5.45;;
65831;SDS011;52593;42.648;23.332;2022-12-18T04:55:05;8.03;;;3.00;;
65831;SDS011;52593;42.648;23.332;2022-12-18T04:57:31;14.10;;;4.67;;
65831;SDS011;52593;42.648;23.332;2022-12-18T04:59:56;9.50;;;3.77;;
65831;SDS011;52593;42.648;23.332;2022-12-18T05:02:21;9.63;;;3.47;;
65831;SDS011;52593;42.648;23.332;2022-12-18T05:04:47;9.57;;;3.65;;
65831;SDS011;52593;42.648;23.332;2022-12-18T05:07:12;9.30;;;3.27;;
65831;SDS011;52593;42.648;23.332;2022-12-18T05:09:38;13.43;;;5.70;;
65831;SDS011;52593;42.648;23.332;2022-12-18T05:12:03;10.03;;;3.80;;
65831;SDS011;52593;42.648;23.332;2022-12-18T05:14:29;11.02;;;4.28;;
65831;SDS011;52593;42.648;23.332;2022-12-18T05:16:54;12.63;;;4.53;;
65831;SDS011;52593;42.648;23.332;2022-12-18T05:19:20;12.18;;;4.55;;
65831;SDS011;52593;42.648;23.332;2022-12-18T05:21:45;10.43;;;3.93;;
65831;SDS011;52593;42.648;23.332;2022-12-18T05:24:11;7.33;;;2.97;;
65831;SDS011;52593;42.648;23.332;2022-12-18T05:26:36;9.40;;;3.77;;
65831;SDS011;52593;42.648;23.332;2022-12-18T05:29:02;11.82;;;4.70;;
65831;SDS011;52593;42.648;23.332;2022-12-18T05:31:27;9.57;;;4.90;;
65831;SDS011;52593;42.648;23.332;2022-12-18T05:33:53;10.77;;;5.27;;
65831;SDS011;52593;42.648;23.332;2022-12-18T05:36:19;14.80;;;5.05;;
65831;SDS011;52593;42.648;23.332;2022-12-18T05:38:44;13.13;;;4.60;;
65831;SDS011;52593;42.648;23.332;2022-12-18T05:41:09;12.77;;;5.00;;
65831;SDS011;52593;42.648;23.332;2022-12-18T05:43:36;9.53;;;3.97;;
65831;SDS011;52593;42.648;23.332;2022-12-18T05:46:06;11.43;;;4.40;;
65831;SDS011;52593;42.648;23.332;2022-12-18T05:48:36;10.90;;;3.60;;
65831;SDS011;52593;42.648;23.332;2022-12-18T05:51:12;13.25;;;6.10;;
65831;SDS011;52593;42.648;23.332;2022-12-18T05:53:40;9.67;;;3.93;;
65831;SDS011;52593;42.648;23.332;2022-12-18T05:56:07;14.80;;;4.95;;
65831;SDS011;52593;42.648;23.332;2022-12-18T05:58:34;12.25;;;5.03;;
65831;SDS011;52593;42.648;23.332;2022-12-18T06:03:55;14.98;;;5.30;;
65831;SDS011;52593;42.648;23.332;2022-12-18T06:06:29;9.55;;;3.42;;
65831;SDS011;52593;42.648;23.332;2022-12-18T06:08:55;16.77;;;6.13;;
65831;SDS011;52593;42.648;23.332;2022-12-18T06:11:21;13.07;;;4.70;;
65831;SDS011;52593;42.648;23.332;2022-12-18T06:13:49;11.60;;;5.07;;
65831;SDS011;52593;42.648;23.332;2022-12-18T06:16:16;12.63;;;5.27;;
65831;SDS011;52593;42.648;23.332;2022-12-18T06:18:41;13.80;;;5.97;;
65831;SDS011;52593;42.648;23.332;2022-12-18T06:21:07;10.60;;;4.37;;
65831;SDS011;52593;42.648;23.332;2022-12-18T06:23:32;13.00;;;5.23;;
65831;SDS011;52593;42.648;23.332;2022-12-18T06:25:57;9.97;;;3.67;;
65831;SDS011;52593;42.648;23.332;2022-12-18T06:28:23;10.07;;;3.60;;
65831;SDS011;52593;42.648;23.332;2022-12-18T06:30:48;11.65;;;4.70;;
65831;SDS011;52593;42.648;23.332;2022-12-18T06:33:15;17.80;;;6.63;;
65831;SDS011;52593;42.648;23.332;2022-12-18T06:35:41;11.18;;;4.80;;
65831;SDS011;52593;42.648;23.332;2022-12-18T06:38:06;11.57;;;4.93;;
65831;SDS011;52593;42.648;23.332;2022-12-18T06:40:32;12.48;;;5.93;;
65831;SDS011;52593;42.648;23.332;2022-12-18T06:42:58;19.87;;;7.23;;
65831;SDS011;52593;42.648;23.332;2022-12-18T06:45:23;13.70;;;5.00;;
65831;SDS011;52593;42.648;23.332;2022-12-18T06:47:49;11.20;;;4.17;;
65831;SDS011;52593;42.648;23.332;2022-12-18T06:50:14;11.07;;;5.10;;
65831;SDS011;52593;42.648;23.332;2022-12-18T06:52:40;13.10;;;5.07;;
65831;SDS011;52593;42.648;23.332;2022-12-18T06:55:06;13.17;;;4.67;;
65831;SDS011;52593;42.648;23.332;2022-12-18T06:57:33;13.35;;;5.28;;
65831;SDS011;52593;42.648;23.332;2022-12-18T06:59:58;15.83;;;6.17;;
65831;SDS011;52593;42.648;23.332;2022-12-18T07:02:23;14.33;;;5.87;;
65831;SDS011;52593;42.648;23.332;2022-12-18T07:04:49;14.07;;;5.32;;
65831;SDS011;52593;42.648;23.332;2022-12-18T07:07:14;11.20;;;4.83;;
65831;SDS011;52593;42.648;23.332;2022-12-18T07:09:39;13.57;;;5.77;;
65831;SDS011;52593;42.648;23.332;2022-12-18T07:12:06;12.63;;;4.72;;
65831;SDS011;52593;42.648;23.332;2022-12-18T07:14:32;11.55;;;5.13;;
65831;SDS011;52593;42.648;23.332;2022-12-18T07:16:58;18.43;;;7.60;;
65831;SDS011;52593;42.648;23.332;2022-12-18T07:19:23;13.90;;;5.40;;
65831;SDS011;52593;42.648;23.332;2022-12-18T07:21:49;14.20;;;6.20;;
65831;SDS011;52593;42.648;23.332;2022-12-18T07:24:15;17.38;;;6.13;;
65831;SDS011;52593;42.648;23.332;2022-12-18T07:26:40;11.50;;;4.47;;
65831;SDS011;52593;42.648;23.332;2022-12-18T07:29:06;19.30;;;6.03;;
65831;SDS011;52593;42.648;23.332;2022-12-18T07:31:31;11.90;;;4.77;;
65831;SDS011;52593;42.648;23.332;2022-12-18T07:33:56;14.05;;;6.65;;
65831;SDS011;52593;42.648;23.332;2022-12-18T07:36:22;12.73;;;4.53;;
65831;SDS011;52593;42.648;23.332;2022-12-18T07:38:47;14.80;;;5.90;;
65831;SDS011;52593;42.648;23.332;2022-12-18T07:41:14;13.00;;;5.75;;
65831;SDS011;52593;42.648;23.332;2022-12-18T07:43:40;11.90;;;5.23;;
65831;SDS011;52593;42.648;23.332;2022-12-18T07:46:06;10.02;;;4.78;;
65831;SDS011;52593;42.648;23.332;2022-12-18T07:48:33;16.08;;;6.20;;
65831;SDS011;52593;42.648;23.332;2022-12-18T07:51:01;12.77;;;5.40;;
65831;SDS011;52593;42.648;23.332;2022-12-18T07:53:29;18.95;;;7.05;;
65831;SDS011;52593;42.648;23.332;2022-12-18T07:55:56;12.93;;;5.38;;
65831;SDS011;52593;42.648;23.332;2022-12-18T07:58:22;12.55;;;4.97;;
65831;SDS011;52593;42.648;23.332;2022-12-18T08:00:47;13.73;;;4.90;;
65831;SDS011;52593;42.648;23.332;2022-12-18T08:03:14;15.07;;;4.67;;
65831;SDS011;52593;42.648;23.332;2022-12-18T08:05:39;14.90;;;6.25;;
65831;SDS011;52593;42.648;23.332;2022-12-18T08:08:04;14.63;;;5.57;;
65831;SDS011;52593;42.648;23.332;2022-12-18T08:10:30;11.57;;;5.20;;
65831;SDS011;52593;42.648;23.332;2022-12-18T08:12:55;16.47;;;5.97;;
65831;SDS011;52593;42.648;23.332;2022-12-18T08:15:21;18.40;;;7.67;;
65831;SDS011;52593;42.648;23.332;2022-12-18T08:17:46;12.77;;;4.87;;
65831;SDS011;52593;42.648;23.332;2022-12-18T08:20:12;18.40;;;8.73;;
65831;SDS011;52593;42.648;23.332;2022-12-18T08:22:39;14.88;;;5.18;;
65831;SDS011;52593;42.648;23.332;2022-12-18T08:25:06;18.83;;;7.28;;
65831;SDS011;52593;42.648;23.332;2022-12-18T08:27:31;15.07;;;6.87;;
65831;SDS011;52593;42.648;23.332;2022-12-18T08:29:57;18.90;;;7.60;;
65831;SDS011;52593;42.648;23.332;2022-12-18T08:32:23;20.33;;;8.37;;
65831;SDS011;52593;42.648;23.332;2022-12-18T08:34:49;16.05;;;6.45;;
65831;SDS011;52593;42.648;23.332;2022-12-18T08:37:14;19.00;;;7.13;;
65831;SDS011;52593;42.648;23.332;2022-12-18T08:39:40;19.23;;;7.00;;
65831;SDS011;52593;42.648;23.332;2022-12-18T08:42:05;18.67;;;7.50;;
65831;SDS011;52593;42.648;23.332;2022-12-18T08:44:49;15.93;;;5.90;;
65831;SDS011;52593;42.648;23.332;2022-12-18T08:47:14;16.50;;;6.90;;
65831;SDS011;52593;42.648;23.332;2022-12-18T08:49:40;14.93;;;6.30;;
65831;SDS011;52593;42.648;23.332;2022-12-18T08:52:05;19.02;;;7.22;;
65831;SDS011;52593;42.648;23.332;2022-12-18T08:54:31;16.60;;;6.57;;
65831;SDS011;52593;42.648;23.332;2022-12-18T08:56:56;17.93;;;6.77;;
65831;SDS011;52593;42.648;23.332;2022-12-18T08:59:21;20.10;;;7.47;;
65831;SDS011;52593;42.648;23.332;2022-12-18T09:01:48;20.00;;;8.60;;
65831;SDS011;52593;42.648;23.332;2022-12-18T09:04:13;21.40;;;7.40;;
65831;SDS011;52593;42.648;23.332;2022-12-18T09:06:39;22.65;;;8.32;;
65831;SDS011;52593;42.648;23.332;2022-12-18T09:09:05;18.70;;;8.50;;
65831;SDS011;52593;42.648;23.332;2022-12-18T09:11:31;17.38;;;5.95;;
65831;SDS011;52593;42.648;23.332;2022-12-18T09:13:58;23.60;;;9.00;;
65831;SDS011;52593;42.648;23.332;2022-12-18T09:16:25;21.15;;;8.05;;
65831;SDS011;52593;42.648;23.332;2022-12-18T09:18:51;23.42;;;8.65;;
65831;SDS011;52593;42.648;23.332;2022-12-18T09:21:19;22.00;;;8.77;;
65831;SDS011;52593;42.648;23.332;2022-12-18T09:23:51;15.77;;;7.07;;
65831;SDS011;52593;42.648;23.332;2022-12-18T09:26:18;18.33;;;7.63;;
65831;SDS011;52593;42.648;23.332;2022-12-18T09:28:44;20.40;;;6.97;;
65831;SDS011;52593;42.648;23.332;2022-12-18T09:31:10;20.50;;;6.93;;
65831;SDS011;52593;42.648;23.332;2022-12-18T09:33:40;17.08;;;7.40;;
65831;SDS011;52593;42.648;23.332;2022-12-18T09:36:06;16.50;;;6.83;;
65831;SDS011;52593;42.648;23.332;2022-12-18T09:38:33;21.45;;;8.23;;
65831;SDS011;52593;42.648;23.332;2022-12-18T09:41:15;19.33;;;6.75;;
65831;SDS011;52593;42.648;23.332;2022-12-18T09:44:04;14.55;;;5.18;;
65831;SDS011;52593;42.648;23.332;2022-12-18T09:46:40;17.90;;;7.43;;
65831;SDS011;52593;42.648;23.332;2022-12-18T09:49:14;25.53;;;8.90;;
65831;SDS011;52593;42.648;23.332;2022-12-18T09:54:53;13.35;;;5.97;;
65831;SDS011;52593;42.648;23.332;2022-12-18T09:57:23;13.13;;;5.85;;
65831;SDS011;52593;42.648;23.332;2022-12-18T09:59:58;17.63;;;6.68;;
65831;SDS011;52593;42.648;23.332;2022-12-18T10:02:31;16.27;;;5.43;;
65831;SDS011;52593;42.648;23.332;2022-12-18T10:07:32;18.88;;;7.63;;
65831;SDS011;52593;42.648;23.332;2022-12-18T10:15:10;17.52;;;6.30;;
65831;SDS011;52593;42.648;23.332;2022-12-18T10:23:33;22.83;;;7.38;;
65831;SDS011;52593;42.648;23.332;2022-12-18T10:26:22;15.05;;;5.50;;
65831;SDS011;52593;42.648;23.332;2022-12-18T10:28:47;19.80;;;7.57;;
65831;SDS011;52593;42.648;23.332;2022-12-18T10:33:41;15.77;;;6.77;;
65831;SDS011;52593;42.648;23.332;2022-12-18T10:36:07;16.77;;;5.72;;
65831;SDS011;52593;42.648;23.332;2022-12-18T10:38:33;15.37;;;6.07;;
65831;SDS011;52593;42.648;23.332;2022-12-18T10:43:29;14.38;;;6.18;;
65831;SDS011;52593;42.648;23.332;2022-12-18T10:51:04;15.10;;;5.60;;
65831;SDS011;52593;42.648;23.332;2022-12-18T10:53:31;20.25;;;8.23;;
65831;SDS011;52593;42.648;23.332;2022-12-18T10:56:01;19.35;;;7.15;;
65831;SDS011;52593;42.648;23.332;2022-12-18T11:03:31;16.58;;;6.57;;
65831;SDS011;52593;42.648;23.332;2022-12-18T11:06:04;17.08;;;7.05;;
65831;SDS011;52593;42.648;23.332;2022-12-18T11:08:35;12.43;;;5.45;;
65831;SDS011;52593;42.648;23.332;2022-12-18T11:11:00;16.90;;;6.07;;
65831;SDS011;52593;42.648;23.332;2022-12-18T11:13:28;17.83;;;5.22;;
65831;SDS011;52593;42.648;23.332;2022-12-18T11:15:55;13.13;;;5.13;;
65831;SDS011;52593;42.648;23.332;2022-12-18T11:21:07;13.87;;;5.90;;
65831;SDS011;52593;42.648;23.332;2022-12-18T11:23:34;15.10;;;5.82;;
65831;SDS011;52593;42.648;23.332;2022-12-18T11:26:01;11.07;;;3.95;;
65831;SDS011;52593;42.648;23.332;2022-12-18T11:28:33;12.18;;;4.32;;
65831;SDS011;52593;42.648;23.332;2022-12-18T11:33:41;19.50;;;7.13;;
65831;SDS011;52593;42.648;23.332;2022-12-18T11:36:10;14.10;;;5.40;;
65831;SDS011;52593;42.648;23.332;2022-12-18T11:38:39;16.35;;;5.95;;
65831;SDS011;52593;42.648;23.332;2022-12-18T11:43:58;17.17;;;6.38;;
65831;SDS011;52593;42.648;23.332;2022-12-18T11:46:34;15.73;;;6.47;;
65831;SDS011;52593;42.648;23.332;2022-12-18T11:49:07;13.80;;;5.50;;
65831;SDS011;52593;42.648;23.332;2022-12-18T11:51:44;9.52;;;4.22;;
65831;SDS011;52593;42.648;23.332;2022-12-18T11:54:40;15.82;;;6.10;;
65831;SDS011;52593;42.648;23.332;2022-12-18T11:59:54;13.48;;;4.90;;
65831;SDS011;52593;42.648;23.332;2022-12-18T12:02:33;17.67;;;6.68;;
65831;SDS011;52593;42.648;23.332;2022-12-18T12:10:04;10.43;;;3.88;;
65831;SDS011;52593;42.648;23.332;2022-12-18T12:22:47;19.15;;;6.40;;
65831;SDS011;52593;42.648;23.332;2022-12-18T12:39:10;17.75;;;7.15;;
65831;SDS011;52593;42.648;23.332;2022-12-18T12:41:39;20.67;;;7.63;;
65831;SDS011;52593;42.648;23.332;2022-12-18T12:44:26;20.93;;;7.80;;
65831;SDS011;52593;42.648;23.332;2022-12-18T12:46:55;22.75;;;7.75;;
65831;SDS011;52593;42.648;23.332;2022-12-18T12:49:26;18.75;;;7.53;;
65831;SDS011;52593;42.648;23.332;2022-12-18T12:51:59;16.77;;;6.43;;
65831;SDS011;52593;42.648;23.332;2022-12-18T12:54:28;19.83;;;7.82;;
65831;SDS011;52593;42.648;23.332;2022-12-18T13:02:36;15.60;;;5.95;;
65831;SDS011;52593;42.648;23.332;2022-12-18T13:05:16;16.50;;;6.28;;
65831;SDS011;52593;42.648;23.332;2022-12-18T13:07:54;17.98;;;7.78;;
65831;SDS011;52593;42.648;23.332;2022-12-18T13:10:42;18.70;;;7.57;;
65831;SDS011;52593;42.648;23.332;2022-12-18T13:13:11;12.05;;;5.43;;
65831;SDS011;52593;42.648;23.332;2022-12-18T13:18:09;15.73;;;6.13;;
65831;SDS011;52593;42.648;23.332;2022-12-18T13:23:32;21.02;;;7.45;;
65831;SDS011;52593;42.648;23.332;2022-12-18T13:31:10;14.73;;;5.65;;
65831;SDS011;52593;42.648;23.332;2022-12-18T13:33:38;14.27;;;5.50;;
65831;SDS011;52593;42.648;23.332;2022-12-18T13:41:39;20.08;;;6.93;;
65831;SDS011;52593;42.648;23.332;2022-12-18T13:44:25;21.95;;;7.50;;
65831;SDS011;52593;42.648;23.332;2022-12-18T13:46:59;19.70;;;7.70;;
65831;SDS011;52593;42.648;23.332;2022-12-18T13:52:21;13.07;;;4.47;;
65831;SDS011;52593;42.648;23.332;2022-12-18T13:54:53;21.60;;;7.22;;
65831;SDS011;52593;42.648;23.332;2022-12-18T13:57:30;20.38;;;7.85;;
65831;SDS011;52593;42.648;23.332;2022-12-18T13:59:59;26.10;;;9.32;;
65831;SDS011;52593;42.648;23.332;2022-12-18T14:02:58;22.42;;;8.60;;
65831;SDS011;52593;42.648;23.332;2022-12-18T14:05:25;21.37;;;8.43;;
65831;SDS011;52593;42.648;23.332;2022-12-18T14:08:00;16.23;;;6.55;;
65831;SDS011;52593;42.648;23.332;2022-12-18T14:10:45;15.65;;;6.47;;
65831;SDS011;52593;42.648;23.332;2022-12-18T14:13:23;14.18;;;6.25;;
65831;SDS011;52593;42.648;23.332;2022-12-18T14:15:53;14.55;;;5.55;;
65831;SDS011;52593;42.648;23.332;2022-12-18T14:18:23;15.57;;;5.80;;
65831;SDS011;52593;42.648;23.332;2022-12-18T14:20:55;14.23;;;5.90;;
65831;SDS011;52593;42.648;23.332;2022-12-18T14:26:02;13.45;;;5.65;;
65831;SDS011;52593;42.648;23.332;2022-12-18T14:32:03;17.97;;;6.10;;
65831;SDS011;52593;42.648;23.332;2022-12-18T14:34:32;14.10;;;5.07;;
65831;SDS011;52593;42.648;23.332;2022-12-18T14:36:57;18.40;;;6.07;;
65831;SDS011;52593;42.648;23.332;2022-12-18T14:39:22;13.67;;;4.60;;
65831;SDS011;52593;42.648;23.332;2022-12-18T14:41:50;14.60;;;4.73;;
65831;SDS011;52593;42.648;23.332;2022-12-18T14:44:16;21.80;;;7.43;;
65831;SDS011;52593;42.648;23.332;2022-12-18T14:46:42;15.30;;;5.53;;
65831;SDS011;52593;42.648;23.332;2022-12-18T14:49:21;17.70;;;6.28;;
65831;SDS011;52593;42.648;23.332;2022-12-18T14:51:49;14.95;;;4.30;;
65831;SDS011;52593;42.648;23.332;2022-12-18T14:54:20;15.13;;;5.50;;
65831;SDS011;52593;42.648;23.332;2022-12-18T14:56:47;16.33;;;5.20;;
65831;SDS011;52593;42.648;23.332;2022-12-18T14:59:25;13.00;;;4.65;;
65831;SDS011;52593;42.648;23.332;2022-12-18T15:04:33;13.10;;;5.25;;
65831;SDS011;52593;42.648;23.332;2022-12-18T15:10:00;21.20;;;7.00;;
65831;SDS011;52593;42.648;23.332;2022-12-18T15:12:43;23.48;;;6.70;;
65831;SDS011;52593;42.648;23.332;2022-12-18T15:26:31;16.42;;;5.38;;
65831;SDS011;52593;42.648;23.332;2022-12-18T15:29:02;11.43;;;3.92;;
65831;SDS011;52593;42.648;23.332;2022-12-18T15:31:32;18.17;;;6.28;;
65831;SDS011;52593;42.648;23.332;2022-12-18T15:34:08;13.37;;;4.20;;
65831;SDS011;52593;42.648;23.332;2022-12-18T15:36:37;16.95;;;6.30;;
65831;SDS011;52593;42.648;23.332;2022-12-18T15:39:03;13.65;;;4.50;;
65831;SDS011;52593;42.648;23.332;2022-12-18T15:41:30;15.32;;;6.03;;
65831;SDS011;52593;42.648;23.332;2022-12-18T15:43:58;14.67;;;4.77;;
65831;SDS011;52593;42.648;23.332;2022-12-18T15:46:24;17.80;;;6.30;;
65831;SDS011;52593;42.648;23.332;2022-12-18T15:48:52;15.35;;;5.20;;
65831;SDS011;52593;42.648;23.332;2022-12-18T15:51:25;19.87;;;6.57;;
65831;SDS011;52593;42.648;23.332;2022-12-18T15:53:54;12.93;;;5.25;;
65831;SDS011;52593;42.648;23.332;2022-12-18T15:56:21;19.67;;;7.28;;
65831;SDS011;52593;42.648;23.332;2022-12-18T15:59:08;17.30;;;6.57;;
65831;SDS011;52593;42.648;23.332;2022-12-18T16:01:37;18.85;;;6.55;;
65831;SDS011;52593;42.648;23.332;2022-12-18T16:04:02;21.33;;;7.10;;
65831;SDS011;52593;42.648;23.332;2022-12-18T16:06:27;15.67;;;5.53;;
65831;SDS011;52593;42.648;23.332;2022-12-18T16:08:53;18.03;;;6.70;;
65831;SDS011;52593;42.648;23.332;2022-12-18T16:11:22;12.63;;;4.60;;
65831;SDS011;52593;42.648;23.332;2022-12-18T16:14:21;20.77;;;6.37;;
65831;SDS011;52593;42.648;23.332;2022-12-18T16:16:51;18.73;;;6.07;;
65831;SDS011;52593;42.648;23.332;2022-12-18T16:19:18;16.83;;;5.88;;
65831;SDS011;52593;42.648;23.332;2022-12-18T16:21:45;14.47;;;4.70;;
65831;SDS011;52593;42.648;23.332;2022-12-18T16:24:18;10.35;;;3.90;;
65831;SDS011;52593;42.648;23.332;2022-12-18T16:26:46;13.95;;;5.28;;
65831;SDS011;52593;42.648;23.332;2022-12-18T16:29:13;17.00;;;5.32;;
65831;SDS011;52593;42.648;23.332;2022-12-18T16:31:39;18.58;;;6.88;;
65831;SDS011;52593;42.648;23.332;2022-12-18T16:36:51;13.98;;;5.35;;
65831;SDS011;52593;42.648;23.332;2022-12-18T16:39:16;19.53;;;6.47;;
65831;SDS011;52593;42.648;23.332;2022-12-18T16:41:42;19.73;;;6.95;;
65831;SDS011;52593;42.648;23.332;2022-12-18T16:44:08;21.50;;;7.57;;
65831;SDS011;52593;42.648;23.332;2022-12-18T16:46:34;22.40;;;7.75;;
65831;SDS011;52593;42.648;23.332;2022-12-18T16:48:59;13.23;;;4.60;;
65831;SDS011;52593;42.648;23.332;2022-12-18T16:51:25;18.80;;;6.38;;
65831;SDS011;52593;42.648;23.332;2022-12-18T16:53:52;15.60;;;5.38;;
65831;SDS011;52593;42.648;23.332;2022-12-18T16:56:19;17.77;;;5.97;;
65831;SDS011;52593;42.648;23.332;2022-12-18T16:58:49;15.80;;;6.57;;
65831;SDS011;52593;42.648;23.332;2022-12-18T17:01:18;12.35;;;4.35;;
65831;SDS011;52593;42.648;23.332;2022-12-18T17:03:43;17.35;;;5.30;;
65831;SDS011;52593;42.648;23.332;2022-12-18T17:06:09;20.57;;;7.60;;